»·PEaware :: N149CD KVNY-KSBP

N149CD :: KVNY-KSBP

FLIGHT INFORMATION

Flight Status: Arrived
Operator: Privately registered:
United States
More flights under this callsign
Pilot: Nathan E. (30132)
Aircraft: CIRRUS SR-22
(SR22)
More flights by this aircraft type
Origin: KVNY Van Nuys
United States
Destination: KSBP San Luis Co Regl
United States
More flights between these airports :: More routes between these airports
Route: CANOG3 FIM V186 RZS MQO
File this flight plan on PilotEdge
Remarks:
Altitude:
(Current/Filed)
8,000ft
Speed:
(Current/Filed)
170kts
Departed: 02-Jan-21 12:21 PM
Arrived: 02-Jan-21 01:21 PM
Distance/Time
Traveled:
123nm/1:00
Distance/Time
To Go:
Arrived

Flight Plot

Page will automatically refresh every two minutes.

Flight plan parsing failed; only flown route is shown


Map Options




Map Legend


Flown Route
Filed Route
Departure Airport
Arrival Airport
Navaid (VOR, NDB)
Fix

Horizontal Profiles

Position Reports

Time Latitude Longitude Heading Altitude Ground
Speed
02-Jan-21 11:52 34.208083 -118.491770 90 804ft 0kts
02-Jan-21 11:53 34.208083 -118.491770 90 804ft 0kts
02-Jan-21 11:54 34.208083 -118.491770 90 804ft 0kts
02-Jan-21 11:55 34.208083 -118.491770 90 804ft 0kts
02-Jan-21 11:57 34.208083 -118.491770 90 804ft 0kts
02-Jan-21 11:58 34.208083 -118.491770 90 804ft 0kts
02-Jan-21 11:59 34.208083 -118.491770 90 804ft 0kts
02-Jan-21 12:00 34.208083 -118.491770 90 804ft 0kts
02-Jan-21 12:01 34.208083 -118.491770 90 804ft 0kts
02-Jan-21 12:02 34.208083 -118.491770 90 804ft 0kts
02-Jan-21 12:03 34.208083 -118.491770 90 804ft 0kts
02-Jan-21 12:04 34.208083 -118.491770 90 804ft 0kts
02-Jan-21 12:05 34.208083 -118.491770 90 804ft 0kts
02-Jan-21 12:06 34.208083 -118.491770 90 804ft 0kts
02-Jan-21 12:07 34.208083 -118.491770 90 804ft 0kts
02-Jan-21 12:08 34.208083 -118.491770 90 804ft 0kts
02-Jan-21 12:09 34.208083 -118.491770 90 804ft 0kts
02-Jan-21 12:10 34.208083 -118.491770 90 804ft 0kts
02-Jan-21 12:11 34.208147 -118.491513 46 804ft 10kts
02-Jan-21 12:12 34.213972 -118.491936 355 804ft 24kts
02-Jan-21 12:13 34.219301 -118.492544 38 804ft 9kts
02-Jan-21 12:14 34.219331 -118.492150 88 804ft 0kts
02-Jan-21 12:14 34.219331 -118.492149 88 804ft 0kts
02-Jan-21 12:15 34.219331 -118.492150 88 804ft 0kts
02-Jan-21 12:17 34.219331 -118.492150 88 804ft 0kts
02-Jan-21 12:17 34.219332 -118.492147 88 804ft 0kts
02-Jan-21 12:18 34.219332 -118.492147 88 804ft 0kts
02-Jan-21 12:19 34.218138 -118.491167 175 804ft 35kts
02-Jan-21 12:20 34.189537 -118.489299 175 1611ft 125kts
02-Jan-21 12:21 34.158536 -118.506167 225 2994ft 127kts
02-Jan-21 12:22 34.133100 -118.535974 225 4064ft 127kts
02-Jan-21 12:23 34.124426 -118.574475 272 4692ft 123kts
02-Jan-21 12:24 34.124105 -118.616070 272 5333ft 123kts
02-Jan-21 12:25 34.123278 -118.657833 260 5970ft 125kts
02-Jan-21 12:26 34.129242 -118.694196 299 6603ft 116kts
02-Jan-21 12:27 34.143170 -118.730522 295 7134ft 118kts
02-Jan-21 12:28 34.156218 -118.766856 295 7697ft 117kts
02-Jan-21 12:29 34.169545 -118.804143 295 8070ft 126kts
02-Jan-21 12:30 34.184362 -118.845654 295 8043ft 129kts
02-Jan-21 12:31 34.198993 -118.886705 295 8045ft 131kts
02-Jan-21 12:32 34.214351 -118.929866 294 8051ft 142kts
02-Jan-21 12:33 34.230751 -118.976014 294 8051ft 150kts
02-Jan-21 12:34 34.247619 -119.023553 294 8042ft 147kts
02-Jan-21 12:35 34.263658 -119.068843 294 8045ft 145kts
02-Jan-21 12:36 34.279575 -119.113857 295 8046ft 145kts
02-Jan-21 12:37 34.295567 -119.159127 295 8046ft 145kts
02-Jan-21 12:38 34.311484 -119.204245 296 8046ft 145kts
02-Jan-21 12:39 34.327635 -119.250091 296 8045ft 146kts
02-Jan-21 12:40 34.343855 -119.296197 296 8045ft 146kts
02-Jan-21 12:41 34.359948 -119.342012 297 8044ft 147kts
02-Jan-21 12:42 34.376065 -119.387963 297 8042ft 148kts
02-Jan-21 12:43 34.392702 -119.434340 285 8041ft 149kts
02-Jan-21 12:44 34.408609 -119.480750 287 8036ft 148kts
02-Jan-21 12:45 34.424554 -119.526568 288 8034ft 147kts
02-Jan-21 12:46 34.440477 -119.572232 287 8026ft 148kts
02-Jan-21 12:47 34.456515 -119.618287 288 8026ft 147kts
02-Jan-21 12:48 34.472548 -119.664397 287 8029ft 147kts
02-Jan-21 12:49 34.488571 -119.710547 287 8028ft 148kts
02-Jan-21 12:50 34.504704 -119.757076 287 8028ft 148kts
02-Jan-21 12:51 34.530088 -119.797915 305 8027ft 154kts
02-Jan-21 12:52 34.559148 -119.836168 306 8023ft 153kts
02-Jan-21 12:53 34.588222 -119.874419 306 8019ft 152kts
02-Jan-21 12:54 34.617081 -119.912422 307 8016ft 150kts
02-Jan-21 12:55 34.645681 -119.950127 307 7989ft 151kts
02-Jan-21 12:56 34.674142 -119.987682 308 7982ft 149kts
02-Jan-21 12:57 34.702289 -120.024851 308 7981ft 148kts
02-Jan-21 12:58 34.730257 -120.061833 308 7981ft 147kts
02-Jan-21 12:59 34.758240 -120.098890 308 7984ft 147kts
02-Jan-21 13:00 34.785869 -120.136237 302 7992ft 145kts
02-Jan-21 13:01 34.809297 -120.176557 303 7997ft 145kts
02-Jan-21 13:02 34.832424 -120.217005 303 8007ft 144kts
02-Jan-21 13:03 34.855492 -120.257495 304 8018ft 144kts
02-Jan-21 13:04 34.878564 -120.298027 305 8024ft 145kts
02-Jan-21 13:05 34.901690 -120.338717 305 8025ft 145kts
02-Jan-21 13:06 34.925294 -120.380328 305 7790ft 155kts
02-Jan-21 13:07 34.950503 -120.424803 305 7289ft 165kts
02-Jan-21 13:08 34.977243 -120.472042 305 6503ft 171kts
02-Jan-21 13:09 35.004234 -120.519821 305 5672ft 151kts
02-Jan-21 13:10 35.033279 -120.518356 29 4720ft 109kts
02-Jan-21 13:11 35.058677 -120.496343 34 3605ft 116kts
02-Jan-21 13:12 35.084527 -120.472965 33 3328ft 116kts
02-Jan-21 13:13 35.111173 -120.448904 28 3329ft 120kts
02-Jan-21 13:14 35.136308 -120.469513 308 3329ft 120kts
02-Jan-21 13:15 35.154936 -120.499440 308 3310ft 101kts
02-Jan-21 13:16 35.172730 -120.528457 308 2644ft 110kts
02-Jan-21 13:17 35.190582 -120.559057 305 1927ft 110kts
02-Jan-21 13:18 35.208242 -120.589978 305 1307ft 103kts
02-Jan-21 13:19 35.224203 -120.618096 304 625ft 93kts
02-Jan-21 13:20 35.236727 -120.639915 306 215ft 21kts
02-Jan-21 13:21 35.237591 -120.639873 15 215ft 8kts
02-Jan-21 13:22 35.238202 -120.639586 202 215ft 0kts
02-Jan-21 13:23 35.238202 -120.639586 202 215ft 0kts
02-Jan-21 13:24 35.238202 -120.639586 202 215ft 0kts

Navigation Log

Ident Type
Flight plan parsing failed, navigation log unavailable